KTDZ/TDZ METAR and TAF weather

Enter ICAO airport designator
Station Type Date Time Source
KTDZ METAR 2021/09/24 03:53 UTC NOAA

KTDZ 240353Z AUTO 25012KT 10SM OVC031 13/08 A2991 RMK AO2 SLP127 T01280078


Station Type Date Time Source
KTDZ Decoded METAR 2021/09/24 03:53 UTC NOAA

TOLEDO METCALF FIELD, OH, United States (KTDZ) 41-34N 83-29W 189M
Sep 23, 2021 - 11:53 PM EDT / 2021.09.24 0353 UTC
Wind: from the WSW (250 degrees) at 14 MPH (12 KT):0
Visibility: 10 mile(s):0
Sky conditions: overcast
Temperature: 55.0 F (12.8 C)
Dew Point: 46.0 F (7.8 C)
Relative Humidity: 71%
Pressure (altimeter): 29.91 in. Hg (1012 hPa)
ob: KTDZ 240353Z AUTO 25012KT 10SM OVC031 13/08 A2991 RMK AO2 SLP127 T01280078
cycle: 4

Station Type Date Time Source
KTDZ TAF UTC NOAA

Error!

Example: see airport list